Главная страница
METAR-TAF:

METAR-TAF

Аэропорты :

Свальбард

Лонгйир, Норвегия

широта: 78-15N, долгота: 015-28E, высота над уровнем моря: 2 м

Текущие метеонаблюдения

Эта сводка был подготовлена 1 час и 21 минут назад, в 01:50 UTC
Ветер 6 Узел от восточно-юго-восточный
Температура 7°C
Влажность 66%
Давление 1009 hPa
Видимость 10 км и более
Рассеянная облачность на высоте 3200 фута

METAR: ENSB 170150Z 12006KT 9999 BKN032 07/01 Q1009 RMK WIND 1400FT 12008KT

Время: 05:11 (03:11 UTC)

Прогноз

Прогноз действительный с 17-го 00 UTC до 17-го 24 UTC
Ветер 10 Узел от восточно-юго-восточный
Видимость 10 км и более
небольшая облачность на высоте 1500 фута
Рассеянная облачность на высоте 3000 фута
временами
С 17-го 18 UTC до 17-го 24 UTC
Ветер 20 Узел от восточно-юго-восточный с порывами до 30 Узел

TAF: ENSB 1700/1724 12010KT 9999 FEW015 BKN030 TEMPO 1718/1724 12020G30KT

Метеонаблюдения и прогнозы для более 4000 аэропортов (сводки METAR и TAF).

Имеющиеся станции представлены на карте желтыми и красными точками.

Чтобы увидеть название станции, наведите на нее мышь.

Затем щелкните, чтобы увидеть метеонаблюдения и метеопрогнозы.

Управление картой: чтобы увеличить масштаб, щелкните зеленые кнопки с черным крестиком; чтобы уменьшить масштаб, щелкните зеленую кнопку с тире; для просмотра соседних карт щелкайте зеленые стрелки.


METAR-TAF: